createdAt,value
2022-11-05T00:01:42.641Z,50.20
2022-11-05T00:04:30.896Z,50.19
2022-11-05T00:07:17.437Z,50.25
2022-11-05T00:09:43.044Z,50.18
2022-11-05T00:12:29.468Z,50.14
2022-11-05T00:15:15.067Z,50.12
2022-11-05T00:17:40.668Z,50.08
2022-11-05T00:20:06.688Z,50.15
2022-11-05T00:22:52.118Z,50.21
2022-11-05T00:25:18.472Z,50.07
2022-11-05T00:27:46.055Z,50.13
2022-11-05T00:30:12.489Z,50.11
2022-11-05T00:32:38.155Z,50.13
2022-11-05T00:35:04.679Z,50.01
2022-11-05T00:37:30.227Z,49.91
2022-11-05T00:39:55.780Z,50.00
2022-11-05T00:42:41.218Z,50.06
2022-11-05T00:45:06.881Z,50.09
2022-11-05T00:47:52.524Z,50.04
2022-11-05T00:50:18.862Z,50.03
2022-11-05T00:52:59.851Z,50.05
2022-11-05T00:55:27.482Z,50.08
2022-11-05T00:57:53.374Z,50.13
2022-11-05T01:00:19.505Z,49.94
2022-11-05T01:02:45.179Z,50.00
2022-11-05T01:05:10.859Z,49.94
2022-11-05T01:07:36.405Z,49.94
2022-11-05T01:10:02.003Z,49.92
2022-11-05T01:12:28.083Z,49.80
2022-11-05T01:14:53.637Z,49.96
2022-11-05T01:17:19.176Z,49.89
2022-11-05T01:19:44.725Z,49.93
2022-11-05T01:22:10.264Z,49.76
2022-11-05T01:24:35.814Z,49.93
2022-11-05T01:27:01.371Z,49.85
2022-11-05T01:29:26.917Z,49.91
2022-11-05T01:31:52.466Z,49.91
2022-11-05T01:34:18.014Z,50.00
2022-11-05T01:36:43.629Z,49.71
2022-11-05T01:39:09.180Z,49.96
2022-11-05T01:41:34.732Z,49.98
2022-11-05T01:44:00.282Z,50.00
2022-11-05T01:46:27.125Z,49.91
2022-11-05T01:48:52.672Z,49.96
2022-11-05T01:51:18.764Z,49.76
2022-11-05T01:53:46.320Z,49.82
2022-11-05T01:56:13.959Z,49.89
2022-11-05T01:58:56.093Z,49.87
2022-11-05T02:01:21.908Z,49.83
2022-11-05T02:03:47.837Z,49.86
2022-11-05T02:06:14.272Z,49.81
2022-11-05T02:08:45.372Z,49.81
2022-11-05T02:11:12.350Z,49.78
2022-11-05T02:13:37.887Z,49.92
2022-11-05T02:16:07.894Z,49.89
2022-11-05T02:18:43.995Z,49.74
2022-11-05T02:21:18.447Z,49.69
2022-11-05T02:24:03.881Z,49.81
2022-11-05T02:26:49.357Z,49.80
2022-11-05T02:29:34.797Z,49.80
2022-11-05T02:32:04.790Z,49.82
2022-11-05T02:34:50.276Z,49.71
2022-11-05T02:37:35.700Z,49.73
2022-11-05T02:40:05.867Z,49.82
2022-11-05T02:42:34.904Z,49.78
2022-11-05T02:47:50.954Z,49.76
2022-11-05T02:50:36.432Z,49.76
2022-11-05T02:53:10.489Z,49.75
2022-11-05T02:55:37.098Z,49.66
2022-11-05T02:58:03.374Z,49.80
2022-11-05T03:03:16.884Z,49.75
2022-11-05T03:05:51.881Z,49.80
2022-11-05T03:08:21.616Z,49.72
2022-11-05T03:10:50.828Z,49.63
2022-11-05T03:13:16.858Z,49.66
2022-11-05T03:16:02.319Z,49.62
2022-11-05T03:18:49.059Z,49.54
2022-11-05T03:21:17.166Z,49.68
2022-11-05T03:23:46.251Z,49.55
2022-11-05T03:26:20.271Z,49.68
2022-11-05T03:28:47.006Z,49.64
2022-11-05T03:31:12.675Z,49.65
2022-11-05T03:33:38.235Z,49.51
2022-11-05T03:36:05.185Z,49.60
2022-11-05T03:38:32.383Z,49.63
2022-11-05T03:40:58.302Z,49.64
2022-11-05T03:43:24.019Z,49.64
2022-11-05T03:45:51.380Z,49.63
2022-11-05T03:48:16.985Z,49.57
2022-11-05T03:50:45.259Z,49.60
2022-11-05T03:53:13.565Z,49.60
2022-11-05T03:55:41.759Z,49.63
2022-11-05T03:58:07.329Z,49.60
2022-11-05T04:00:32.884Z,49.63
2022-11-05T04:02:58.561Z,49.45
2022-11-05T04:05:24.167Z,49.65
2022-11-05T04:08:14.125Z,49.48
2022-11-05T04:11:00.042Z,49.48
2022-11-05T04:13:25.956Z,49.67
2022-11-05T04:16:12.012Z,49.63
2022-11-05T04:18:37.591Z,49.61
2022-11-05T04:21:23.843Z,49.44
2022-11-05T04:24:09.503Z,49.50
2022-11-05T04:26:35.803Z,49.51
2022-11-05T04:29:21.241Z,49.53
2022-11-05T04:31:46.825Z,49.41
2022-11-05T04:34:12.366Z,49.65
2022-11-05T04:36:37.921Z,49.69
2022-11-05T04:39:03.457Z,49.53
2022-11-05T04:41:29.004Z,49.48
2022-11-05T04:43:54.539Z,49.51
2022-11-05T04:46:20.088Z,49.48
2022-11-05T04:48:45.628Z,49.53
2022-11-05T04:51:11.173Z,49.65
2022-11-05T04:53:36.716Z,49.43
2022-11-05T04:56:09.899Z,49.36
2022-11-05T04:58:42.627Z,49.57
2022-11-05T05:01:10.808Z,49.36
2022-11-05T05:03:36.388Z,49.54
2022-11-05T05:06:04.008Z,49.51
2022-11-05T05:08:29.828Z,49.40
2022-11-05T05:10:55.384Z,49.48
2022-11-05T05:13:20.934Z,49.42
2022-11-05T05:15:46.481Z,49.61
2022-11-05T05:18:12.040Z,49.48
2022-11-05T05:20:57.489Z,49.61
2022-11-05T05:23:23.050Z,49.44
2022-11-05T05:25:48.600Z,49.46
2022-11-05T05:28:14.144Z,49.51
2022-11-05T05:30:39.694Z,49.41
2022-11-05T05:33:05.227Z,49.36
2022-11-05T05:35:30.776Z,49.64
2022-11-05T05:37:56.312Z,49.46
2022-11-05T05:40:22.226Z,49.48
2022-11-05T05:42:51.948Z,49.35
2022-11-05T05:45:17.493Z,49.52
2022-11-05T05:47:43.035Z,49.55
2022-11-05T05:50:08.583Z,49.43
2022-11-05T05:52:34.117Z,49.44
2022-11-05T05:54:59.906Z,49.60
2022-11-05T05:57:25.447Z,49.34
2022-11-05T05:59:51.001Z,49.46
2022-11-05T06:02:16.651Z,49.39
2022-11-05T06:04:42.275Z,49.42
2022-11-05T06:07:07.818Z,49.48
2022-11-05T06:09:33.362Z,49.42
2022-11-05T06:11:58.911Z,49.34
2022-11-05T06:14:24.451Z,49.40
2022-11-05T06:16:50.002Z,49.23
2022-11-05T06:19:15.545Z,49.38
2022-11-05T06:21:41.174Z,49.35
2022-11-05T06:24:06.930Z,49.35
2022-11-05T06:26:32.515Z,49.30
2022-11-05T06:28:58.062Z,49.35
2022-11-05T06:31:23.654Z,49.22
2022-11-05T06:33:49.276Z,49.25
2022-11-05T06:36:15.597Z,49.27
2022-11-05T06:38:41.190Z,49.37
2022-11-05T06:41:10.278Z,49.42
2022-11-05T06:43:36.332Z,49.40
2022-11-05T06:46:02.147Z,49.32
2022-11-05T06:48:28.088Z,49.25
2022-11-05T06:50:53.794Z,49.39
2022-11-05T06:53:19.853Z,49.30
2022-11-05T06:55:47.059Z,49.28
2022-11-05T06:58:13.060Z,49.28
2022-11-05T07:00:38.651Z,49.23
2022-11-05T07:03:05.972Z,49.31
2022-11-05T07:05:31.995Z,49.39
2022-11-05T07:07:57.540Z,49.16
2022-11-05T07:10:23.110Z,49.23
2022-11-05T07:12:48.648Z,49.32
2022-11-05T07:15:14.199Z,47.82
2022-11-05T07:17:39.800Z,46.18
2022-11-05T07:20:06.141Z,46.48
2022-11-05T07:22:31.811Z,47.14
2022-11-05T07:24:57.418Z,49.44
2022-11-05T07:27:22.961Z,49.42
2022-11-05T07:29:48.595Z,49.54
2022-11-05T07:32:14.131Z,49.44
2022-11-05T07:34:39.670Z,49.50
2022-11-05T07:37:05.644Z,49.51
2022-11-05T07:39:31.185Z,49.51
2022-11-05T07:41:57.689Z,49.64
2022-11-05T07:44:23.275Z,49.47
2022-11-05T07:46:50.065Z,48.58
2022-11-05T07:49:15.671Z,49.42
2022-11-05T07:51:41.232Z,48.08
2022-11-05T07:57:28.615Z,46.14
2022-11-05T07:59:54.178Z,46.57
2022-11-05T08:02:19.917Z,45.82
2022-11-05T08:04:45.646Z,44.93
2022-11-05T08:07:11.195Z,45.04
2022-11-05T08:09:36.737Z,45.73
2022-11-05T08:12:03.365Z,46.02
2022-11-05T08:14:29.078Z,45.28
2022-11-05T08:16:56.119Z,44.80
2022-11-05T08:19:21.675Z,45.79
2022-11-05T08:21:47.231Z,45.13
2022-11-05T08:24:12.781Z,45.19
2022-11-05T08:26:38.325Z,45.22
2022-11-05T08:29:03.871Z,46.24
2022-11-05T08:31:31.087Z,47.56
2022-11-05T08:34:01.362Z,47.72
2022-11-05T08:36:28.136Z,48.17
2022-11-05T08:38:53.695Z,47.61
2022-11-05T08:41:19.253Z,47.58
2022-11-05T08:43:44.829Z,48.16
2022-11-05T08:46:10.394Z,46.84
2022-11-05T08:48:35.937Z,47.60
2022-11-05T08:51:01.492Z,48.07
2022-11-05T08:53:27.036Z,47.78
2022-11-05T08:55:56.338Z,47.78
2022-11-05T08:58:21.900Z,48.49
2022-11-05T09:00:48.118Z,48.10
2022-11-05T09:03:14.380Z,48.11
2022-11-05T09:05:40.393Z,47.53
2022-11-05T09:08:06.522Z,47.15
2022-11-05T09:10:34.521Z,46.93
2022-11-05T09:13:00.099Z,47.60
2022-11-05T09:15:25.649Z,46.56
2022-11-05T09:17:51.199Z,47.15
2022-11-05T09:20:16.749Z,46.73
2022-11-05T09:22:43.623Z,48.63
2022-11-05T09:25:09.309Z,48.92
2022-11-05T09:27:34.972Z,49.20
2022-11-05T09:30:00.520Z,49.04
2022-11-05T09:32:26.067Z,49.04
2022-11-05T09:34:51.634Z,49.12
2022-11-05T09:37:17.186Z,48.98
2022-11-05T09:39:42.746Z,48.98
2022-11-05T09:42:08.510Z,47.98
2022-11-05T09:44:39.669Z,48.79
2022-11-05T09:47:06.844Z,48.97
2022-11-05T09:49:34.578Z,49.02
2022-11-05T09:52:00.415Z,49.02
2022-11-05T09:54:27.903Z,49.11
2022-11-05T09:56:53.456Z,49.19
2022-11-05T09:59:23.754Z,48.42
2022-11-05T10:01:49.529Z,49.01
2022-11-05T10:04:17.217Z,48.39
2022-11-05T10:06:47.091Z,49.11
2022-11-05T10:09:14.099Z,49.05
2022-11-05T10:11:42.711Z,49.15
2022-11-05T10:14:28.141Z,49.00
2022-11-05T10:16:57.082Z,47.42
2022-11-05T10:19:24.798Z,47.73
2022-11-05T10:22:06.697Z,48.68
2022-11-05T10:24:32.573Z,48.88
2022-11-05T10:26:58.301Z,47.86
2022-11-05T10:29:25.632Z,49.06
2022-11-05T10:31:52.062Z,49.09
2022-11-05T10:34:18.123Z,48.14
2022-11-05T10:36:43.690Z,47.87
2022-11-05T10:39:11.017Z,49.12
2022-11-05T10:41:40.023Z,49.01
2022-11-05T10:44:19.102Z,49.20
2022-11-05T10:46:47.857Z,48.46
2022-11-05T10:49:18.030Z,47.80
2022-11-05T10:51:44.054Z,49.04
2022-11-05T10:54:12.739Z,47.29
2022-11-05T10:56:39.438Z,48.50
2022-11-05T10:59:11.934Z,48.10
2022-11-05T11:01:37.945Z,47.41
2022-11-05T11:04:05.346Z,48.99
2022-11-05T11:06:31.685Z,49.06
2022-11-05T11:08:58.931Z,48.65
2022-11-05T11:11:32.321Z,47.67
2022-11-05T11:14:00.555Z,47.50
2022-11-05T11:16:26.772Z,47.96
2022-11-05T11:18:53.522Z,48.90
2022-11-05T11:21:19.399Z,49.16
2022-11-05T11:23:53.212Z,49.08
2022-11-05T11:26:20.931Z,48.91
2022-11-05T11:28:54.858Z,49.12
2022-11-05T11:31:21.033Z,47.71
2022-11-05T11:33:47.259Z,49.11
2022-11-05T11:36:12.824Z,49.05
2022-11-05T11:38:38.359Z,49.01
2022-11-05T11:41:07.985Z,48.42
2022-11-05T11:43:34.174Z,49.07
2022-11-05T11:46:05.386Z,48.33
2022-11-05T11:48:33.723Z,48.83
2022-11-05T11:50:59.276Z,47.99
2022-11-05T11:53:27.668Z,47.77
2022-11-05T11:55:56.898Z,48.07
2022-11-05T11:58:22.976Z,48.14
2022-11-05T12:00:50.074Z,48.95
2022-11-05T12:03:19.328Z,48.84
2022-11-05T12:05:47.309Z,49.03
2022-11-05T12:08:19.833Z,49.05
2022-11-05T12:10:48.451Z,48.15
2022-11-05T12:15:56.351Z,49.16
2022-11-05T12:18:41.764Z,49.12
2022-11-05T12:21:29.302Z,49.12
2022-11-05T12:24:21.891Z,49.03
2022-11-05T12:27:08.642Z,49.08
2022-11-05T12:29:37.522Z,49.21
2022-11-05T12:32:16.822Z,49.13
2022-11-05T12:35:02.287Z,49.14
2022-11-05T12:37:30.673Z,49.20
2022-11-05T12:39:59.695Z,49.16
2022-11-05T12:42:36.305Z,49.18
2022-11-05T12:45:21.336Z,49.14
2022-11-05T12:47:49.301Z,49.25
2022-11-05T12:50:20.854Z,48.50
2022-11-05T12:53:06.273Z,49.09
2022-11-05T12:55:35.950Z,49.01
2022-11-05T12:58:05.144Z,49.07
2022-11-05T13:00:30.705Z,49.07
2022-11-05T13:02:59.743Z,49.27
2022-11-05T13:05:45.191Z,49.09
2022-11-05T13:08:15.063Z,49.12
2022-11-05T13:10:43.609Z,48.40
2022-11-05T13:13:15.337Z,48.15
2022-11-05T13:15:56.835Z,49.10
2022-11-05T13:18:25.088Z,48.56
2022-11-05T13:20:51.469Z,49.06
2022-11-05T13:23:20.226Z,49.04
2022-11-05T13:25:47.642Z,49.11
2022-11-05T13:28:18.724Z,48.75
2022-11-05T13:30:45.630Z,49.19
2022-11-05T13:33:13.070Z,49.26
2022-11-05T13:35:41.343Z,48.08
2022-11-05T13:38:27.639Z,47.78
2022-11-05T13:40:58.640Z,47.25
2022-11-05T13:46:10.218Z,47.22
2022-11-05T13:48:55.645Z,47.16
2022-11-05T13:51:25.747Z,49.01
2022-11-05T13:54:11.170Z,49.04
2022-11-05T13:56:56.591Z,47.85
2022-11-05T13:59:42.022Z,48.05
2022-11-05T14:02:16.755Z,48.96
2022-11-05T14:04:46.647Z,47.08
2022-11-05T14:07:15.529Z,48.70
2022-11-05T14:09:41.073Z,49.18
2022-11-05T14:12:07.419Z,48.98
2022-11-05T14:14:38.893Z,48.90
2022-11-05T14:19:50.639Z,49.06
2022-11-05T14:22:27.335Z,49.10
2022-11-05T14:24:52.910Z,49.19
2022-11-05T14:27:22.126Z,49.23
2022-11-05T14:29:48.137Z,48.91
2022-11-05T14:32:19.554Z,48.66
2022-11-05T14:34:54.067Z,47.56
2022-11-05T14:37:21.649Z,49.09
2022-11-05T14:39:47.204Z,48.91
2022-11-05T14:42:16.411Z,48.87
2022-11-05T14:45:01.846Z,49.07
2022-11-05T14:47:29.102Z,47.51
2022-11-05T14:49:57.409Z,48.86
2022-11-05T14:52:22.961Z,48.60
2022-11-05T14:54:50.105Z,47.90
2022-11-05T14:57:35.605Z,49.12
2022-11-05T15:00:01.535Z,49.19
2022-11-05T15:02:31.712Z,48.84
2022-11-05T15:05:17.244Z,49.10
2022-11-05T15:07:42.784Z,48.83
2022-11-05T15:10:10.921Z,48.17
2022-11-05T15:12:39.494Z,47.76
2022-11-05T15:15:26.817Z,49.12
2022-11-05T15:18:00.618Z,48.48
2022-11-05T15:20:29.110Z,46.94
2022-11-05T15:22:56.140Z,48.52
2022-11-05T15:25:24.208Z,46.64
2022-11-05T15:27:55.093Z,45.42
2022-11-05T15:30:21.053Z,45.02
2022-11-05T15:32:46.581Z,44.99
2022-11-05T15:35:28.250Z,44.67
2022-11-05T15:38:00.397Z,45.46
2022-11-05T15:40:28.555Z,44.54
2022-11-05T15:43:10.349Z,44.58
2022-11-05T15:45:36.212Z,44.52
2022-11-05T15:48:01.752Z,44.59
2022-11-05T15:50:27.356Z,44.62
2022-11-05T15:52:53.948Z,44.84
2022-11-05T15:55:23.575Z,44.64
2022-11-05T15:57:51.274Z,44.22
2022-11-05T16:00:19.914Z,43.63
2022-11-05T16:03:01.633Z,43.69
2022-11-05T16:05:28.096Z,43.94
2022-11-05T16:07:53.638Z,44.10
2022-11-05T16:10:22.071Z,44.21
2022-11-05T16:12:47.624Z,44.51
2022-11-05T16:15:15.898Z,44.88
2022-11-05T16:17:46.283Z,45.08
2022-11-05T16:20:21.164Z,45.03
2022-11-05T16:22:47.275Z,45.26
2022-11-05T16:25:32.732Z,45.35
2022-11-05T16:27:58.379Z,45.31
2022-11-05T16:30:24.038Z,45.45
2022-11-05T16:32:49.603Z,45.57
2022-11-05T16:35:19.629Z,45.46
2022-11-05T16:37:50.738Z,45.55
2022-11-05T16:40:19.189Z,45.54
2022-11-05T16:42:47.546Z,45.59
2022-11-05T16:45:14.023Z,45.65
2022-11-05T16:47:39.718Z,45.88
2022-11-05T16:50:23.182Z,45.51
2022-11-05T16:52:48.840Z,45.78
2022-11-05T16:55:14.596Z,45.69
2022-11-05T16:57:40.951Z,45.70
2022-11-05T17:00:06.937Z,45.74
2022-11-05T17:02:32.659Z,45.79
2022-11-05T17:04:58.350Z,45.75
2022-11-05T17:07:23.910Z,45.78
2022-11-05T17:09:49.453Z,45.77
2022-11-05T17:12:14.998Z,45.87
2022-11-05T17:14:40.548Z,45.90
2022-11-05T17:17:06.102Z,46.09
2022-11-05T17:19:31.641Z,46.16
2022-11-05T17:21:57.202Z,45.88
2022-11-05T17:24:22.747Z,46.04
2022-11-05T17:26:48.376Z,46.21
2022-11-05T17:29:13.948Z,46.02
2022-11-05T17:31:39.785Z,46.05
2022-11-05T17:34:05.323Z,45.89
2022-11-05T17:36:30.912Z,46.01
2022-11-05T17:38:56.450Z,46.06
2022-11-05T17:41:22.476Z,46.21
2022-11-05T17:43:51.698Z,46.03
2022-11-05T17:46:18.313Z,46.18
2022-11-05T17:48:45.020Z,46.24
2022-11-05T17:51:11.550Z,46.25
2022-11-05T17:53:37.089Z,46.36
2022-11-05T17:56:06.556Z,46.13
2022-11-05T17:58:32.506Z,46.24
2022-11-05T18:00:58.087Z,46.29
2022-11-05T18:03:23.633Z,46.18
2022-11-05T18:05:49.190Z,46.04
2022-11-05T18:08:14.735Z,46.31
2022-11-05T18:10:40.277Z,46.35
2022-11-05T18:13:05.848Z,46.28
2022-11-05T18:15:31.413Z,46.26
2022-11-05T18:17:56.978Z,46.40
2022-11-05T18:20:22.613Z,46.42
2022-11-05T18:22:48.938Z,46.33
2022-11-05T18:25:14.478Z,46.30
2022-11-05T18:27:40.084Z,46.34
2022-11-05T18:30:05.925Z,46.40
2022-11-05T18:32:31.648Z,46.39
2022-11-05T18:34:57.192Z,46.49
2022-11-05T18:37:22.741Z,46.70
2022-11-05T18:39:49.607Z,46.61
2022-11-05T18:42:15.176Z,46.59
2022-11-05T18:44:40.716Z,46.66
2022-11-05T18:47:06.265Z,46.62
2022-11-05T18:49:31.818Z,46.57
2022-11-05T18:51:57.362Z,46.45
2022-11-05T18:54:22.915Z,46.69
2022-11-05T18:56:48.471Z,46.72
2022-11-05T18:59:35.589Z,46.74
2022-11-05T19:02:00.996Z,46.69
2022-11-05T19:04:27.014Z,46.66
2022-11-05T19:06:52.565Z,46.58
2022-11-05T19:09:18.110Z,46.96
2022-11-05T19:11:43.672Z,46.85
2022-11-05T19:14:09.215Z,46.71
2022-11-05T19:16:34.749Z,46.84
2022-11-05T19:19:01.064Z,46.81
2022-11-05T19:21:26.766Z,46.90
2022-11-05T19:23:52.309Z,46.91
2022-11-05T19:26:20.859Z,46.67
2022-11-05T19:28:49.807Z,46.86
2022-11-05T19:31:19.117Z,46.90
2022-11-05T19:33:44.996Z,46.81
2022-11-05T19:36:11.126Z,46.81
2022-11-05T19:38:36.673Z,46.92
2022-11-05T19:41:03.238Z,46.77
2022-11-05T19:43:28.783Z,46.86
2022-11-05T19:45:54.338Z,46.86
2022-11-05T19:48:20.650Z,46.74
2022-11-05T19:50:46.374Z,46.84
2022-11-05T19:53:11.962Z,47.03
2022-11-05T19:55:38.074Z,46.67
2022-11-05T19:58:03.630Z,46.78
2022-11-05T20:00:29.180Z,46.86
2022-11-05T20:02:54.860Z,46.73
2022-11-05T20:05:20.567Z,46.96
2022-11-05T20:07:52.251Z,46.93
2022-11-05T20:10:18.437Z,46.95
2022-11-05T20:12:43.991Z,46.97
2022-11-05T20:15:09.637Z,46.96
2022-11-05T20:17:35.182Z,47.04
2022-11-05T20:20:00.730Z,47.00
2022-11-05T20:22:26.277Z,46.97
2022-11-05T20:24:51.822Z,46.97
2022-11-05T20:27:17.679Z,47.07
2022-11-05T20:29:43.219Z,47.16
2022-11-05T20:32:11.474Z,47.11
2022-11-05T20:34:37.025Z,47.08
2022-11-05T20:37:03.315Z,47.08
2022-11-05T20:39:28.875Z,46.92
2022-11-05T20:41:55.963Z,47.03
2022-11-05T20:44:21.595Z,47.18
2022-11-05T20:46:47.142Z,47.04
2022-11-05T20:49:12.678Z,47.13
2022-11-05T20:51:38.230Z,47.19
2022-11-05T20:54:04.517Z,47.08
2022-11-05T20:56:30.698Z,47.04
2022-11-05T20:58:57.900Z,47.10
2022-11-05T21:01:23.810Z,46.98
2022-11-05T21:03:49.470Z,47.20
2022-11-05T21:06:15.148Z,47.11
2022-11-05T21:08:40.719Z,46.98
2022-11-05T21:11:06.528Z,47.28
2022-11-05T21:13:32.282Z,47.09
2022-11-05T21:15:58.840Z,47.15
2022-11-05T21:18:25.561Z,47.08
2022-11-05T21:20:51.150Z,47.13
2022-11-05T21:23:16.762Z,47.22
2022-11-05T21:25:42.572Z,47.17
2022-11-05T21:28:08.137Z,47.29
2022-11-05T21:30:35.169Z,47.01
2022-11-05T21:33:00.719Z,47.28
2022-11-05T21:35:26.263Z,47.52
2022-11-05T21:37:51.817Z,47.12
2022-11-05T21:40:17.357Z,47.33
2022-11-05T21:42:42.905Z,47.05
2022-11-05T21:45:08.581Z,47.31
2022-11-05T21:47:34.129Z,47.12
2022-11-05T21:49:59.668Z,47.40
2022-11-05T21:52:45.119Z,47.14
2022-11-05T21:55:31.752Z,47.13
2022-11-05T21:58:17.710Z,47.30
2022-11-05T22:00:43.260Z,47.43
2022-11-05T22:03:08.807Z,47.20
2022-11-05T22:05:34.360Z,47.32
2022-11-05T22:08:00.064Z,47.61
2022-11-05T22:10:25.618Z,47.31
2022-11-05T22:12:51.159Z,47.22
2022-11-05T22:15:16.700Z,47.31
2022-11-05T22:17:46.611Z,47.45
2022-11-05T22:20:12.587Z,47.17
2022-11-05T22:22:38.144Z,47.45
2022-11-05T22:25:03.786Z,47.38
2022-11-05T22:27:29.343Z,47.26
2022-11-05T22:29:54.882Z,47.56
2022-11-05T22:32:20.436Z,47.22
2022-11-05T22:34:46.917Z,47.51
2022-11-05T22:37:12.826Z,47.18
2022-11-05T22:39:38.364Z,47.52
2022-11-05T22:42:08.194Z,47.64
2022-11-05T22:44:34.338Z,47.32
2022-11-05T22:46:59.921Z,47.34
2022-11-05T22:49:25.462Z,47.48
2022-11-05T22:51:51.019Z,47.25
2022-11-05T22:54:16.728Z,47.46
2022-11-05T22:56:42.578Z,47.64
2022-11-05T22:59:09.771Z,47.57
2022-11-05T23:01:35.384Z,47.52
2022-11-05T23:04:01.034Z,47.34
2022-11-05T23:06:47.431Z,47.30
2022-11-05T23:09:37.359Z,47.48
2022-11-05T23:12:03.992Z,47.63
2022-11-05T23:14:29.590Z,47.52
2022-11-05T23:17:15.049Z,47.45
2022-11-05T23:20:00.554Z,47.48
2022-11-05T23:22:47.007Z,47.27
2022-11-05T23:25:16.116Z,47.50
2022-11-05T23:27:41.846Z,47.21
2022-11-05T23:30:08.815Z,47.25
2022-11-05T23:32:34.368Z,47.26
2022-11-05T23:34:59.914Z,47.39
2022-11-05T23:37:46.691Z,47.57
2022-11-05T23:40:14.695Z,47.25
2022-11-05T23:43:00.658Z,47.19
2022-11-05T23:45:46.119Z,47.28
2022-11-05T23:48:16.142Z,47.33
2022-11-05T23:50:42.771Z,47.25
2022-11-05T23:53:08.441Z,47.40
2022-11-05T23:55:34.016Z,47.34
2022-11-05T23:57:59.570Z,47.34
